sensor_id;sensor_type;location;lat;lon;timestamp;temperature;humidity
2523;DHT22;1272;53.332;9.860;2022-12-07T00:01:29;3.10;99.90
2523;DHT22;1272;53.332;9.860;2022-12-07T00:03:56;3.10;99.90
2523;DHT22;1272;53.332;9.860;2022-12-07T00:08:57;3.10;99.90
2523;DHT22;1272;53.332;9.860;2022-12-07T00:11:23;3.10;99.90
2523;DHT22;1272;53.332;9.860;2022-12-07T00:13:57;3.10;99.90
2523;DHT22;1272;53.332;9.860;2022-12-07T00:16:26;3.20;99.90
2523;DHT22;1272;53.332;9.860;2022-12-07T00:18:52;3.20;99.90
2523;DHT22;1272;53.332;9.860;2022-12-07T00:21:23;3.30;99.90
2523;DHT22;1272;53.332;9.860;2022-12-07T00:23:50;3.30;99.90
2523;DHT22;1272;53.332;9.860;2022-12-07T00:28:54;3.30;99.90
2523;DHT22;1272;53.332;9.860;2022-12-07T00:31:22;3.40;99.90
2523;DHT22;1272;53.332;9.860;2022-12-07T00:33:48;3.30;99.90
2523;DHT22;1272;53.332;9.860;2022-12-07T00:36:16;3.30;99.90
2523;DHT22;1272;53.332;9.860;2022-12-07T00:38:42;3.30;99.90
2523;DHT22;1272;53.332;9.860;2022-12-07T00:41:16;3.40;99.90
2523;DHT22;1272;53.332;9.860;2022-12-07T00:43:43;3.40;99.90
2523;DHT22;1272;53.332;9.860;2022-12-07T00:46:27;3.40;99.90
2523;DHT22;1272;53.332;9.860;2022-12-07T00:48:53;3.40;99.90
2523;DHT22;1272;53.332;9.860;2022-12-07T00:51:21;3.40;99.90
2523;DHT22;1272;53.332;9.860;2022-12-07T00:53:47;3.40;99.90
2523;DHT22;1272;53.332;9.860;2022-12-07T00:56:28;3.40;99.90
2523;DHT22;1272;53.332;9.860;2022-12-07T00:58:58;3.40;99.90
2523;DHT22;1272;53.332;9.860;2022-12-07T01:01:26;3.60;99.90
2523;DHT22;1272;53.332;9.860;2022-12-07T01:03:51;3.60;99.90
2523;DHT22;1272;53.332;9.860;2022-12-07T01:06:19;3.60;99.90
2523;DHT22;1272;53.332;9.860;2022-12-07T01:08:45;3.60;99.90
2523;DHT22;1272;53.332;9.860;2022-12-07T01:11:16;3.60;99.90
2523;DHT22;1272;53.332;9.860;2022-12-07T01:13:42;3.60;99.90
2523;DHT22;1272;53.332;9.860;2022-12-07T01:16:10;3.60;99.90
2523;DHT22;1272;53.332;9.860;2022-12-07T01:18:37;3.70;99.90
2523;DHT22;1272;53.332;9.860;2022-12-07T01:21:10;3.70;99.90
2523;DHT22;1272;53.332;9.860;2022-12-07T01:23:37;3.70;99.90
2523;DHT22;1272;53.332;9.860;2022-12-07T01:26:05;3.70;99.90
2523;DHT22;1272;53.332;9.860;2022-12-07T01:28:32;3.70;99.90
2523;DHT22;1272;53.332;9.860;2022-12-07T01:31:06;3.70;99.90
2523;DHT22;1272;53.332;9.860;2022-12-07T01:33:35;3.70;99.90
2523;DHT22;1272;53.332;9.860;2022-12-07T01:36:16;3.70;99.90
2523;DHT22;1272;53.332;9.860;2022-12-07T01:38:43;3.80;99.90
2523;DHT22;1272;53.332;9.860;2022-12-07T01:41:09;3.80;99.90
2523;DHT22;1272;53.332;9.860;2022-12-07T01:43:35;3.90;99.90
2523;DHT22;1272;53.332;9.860;2022-12-07T01:46:02;3.80;99.90
2523;DHT22;1272;53.332;9.860;2022-12-07T01:50:57;3.80;99.90
2523;DHT22;1272;53.332;9.860;2022-12-07T01:53:28;3.80;99.90
2523;DHT22;1272;53.332;9.860;2022-12-07T01:55:56;3.80;99.90
2523;DHT22;1272;53.332;9.860;2022-12-07T01:58:23;3.80;99.90
2523;DHT22;1272;53.332;9.860;2022-12-07T02:00:49;3.70;99.90
2523;DHT22;1272;53.332;9.860;2022-12-07T02:03:22;3.80;99.90
2523;DHT22;1272;53.332;9.860;2022-12-07T02:05:49;3.80;99.90
2523;DHT22;1272;53.332;9.860;2022-12-07T02:08:16;3.80;99.90
2523;DHT22;1272;53.332;9.860;2022-12-07T02:10:43;3.80;99.90
2523;DHT22;1272;53.332;9.860;2022-12-07T02:13:30;3.80;99.90
2523;DHT22;1272;53.332;9.860;2022-12-07T02:21:52;3.80;99.90
2523;DHT22;1272;53.332;9.860;2022-12-07T02:35:09;3.50;99.90
2523;DHT22;1272;53.332;9.860;2022-12-07T02:37:47;3.60;99.90
2523;DHT22;1272;53.332;9.860;2022-12-07T02:40:31;3.50;99.90
2523;DHT22;1272;53.332;9.860;2022-12-07T02:43:10;3.50;99.90
2523;DHT22;1272;53.332;9.860;2022-12-07T02:45:39;3.50;99.90
2523;DHT22;1272;53.332;9.860;2022-12-07T02:48:07;3.50;99.90
2523;DHT22;1272;53.332;9.860;2022-12-07T02:50:34;3.40;99.90
2523;DHT22;1272;53.332;9.860;2022-12-07T02:53:00;3.40;99.90
2523;DHT22;1272;53.332;9.860;2022-12-07T02:55:35;3.40;99.90
2523;DHT22;1272;53.332;9.860;2022-12-07T03:00:31;3.40;99.90
2523;DHT22;1272;53.332;9.860;2022-12-07T03:03:05;3.40;99.90
2523;DHT22;1272;53.332;9.860;2022-12-07T03:10:56;3.30;99.90
2523;DHT22;1272;53.332;9.860;2022-12-07T03:16:21;3.20;99.90
2523;DHT22;1272;53.332;9.860;2022-12-07T03:19:10;3.10;99.90
2523;DHT22;1272;53.332;9.860;2022-12-07T03:21:42;3.20;99.90
2523;DHT22;1272;53.332;9.860;2022-12-07T03:24:14;3.10;99.90
2523;DHT22;1272;53.332;9.860;2022-12-07T03:26:53;3.10;99.90
2523;DHT22;1272;53.332;9.860;2022-12-07T03:29:31;3.00;99.90
2523;DHT22;1272;53.332;9.860;2022-12-07T03:32:06;3.10;99.90
2523;DHT22;1272;53.332;9.860;2022-12-07T03:34:43;3.10;99.90
2523;DHT22;1272;53.332;9.860;2022-12-07T03:37:27;3.00;99.90
2523;DHT22;1272;53.332;9.860;2022-12-07T03:40:18;3.00;99.90
2523;DHT22;1272;53.332;9.860;2022-12-07T03:42:45;3.00;99.90
2523;DHT22;1272;53.332;9.860;2022-12-07T03:45:12;2.90;99.90
2523;DHT22;1272;53.332;9.860;2022-12-07T03:48:21;2.90;99.90
2523;DHT22;1272;53.332;9.860;2022-12-07T03:50:54;2.90;99.90
2523;DHT22;1272;53.332;9.860;2022-12-07T03:53:27;2.80;99.90
2523;DHT22;1272;53.332;9.860;2022-12-07T03:55:56;2.80;99.90
2523;DHT22;1272;53.332;9.860;2022-12-07T03:58:23;2.70;99.90
2523;DHT22;1272;53.332;9.860;2022-12-07T04:00:50;2.70;99.90
2523;DHT22;1272;53.332;9.860;2022-12-07T04:03:16;2.70;99.90
2523;DHT22;1272;53.332;9.860;2022-12-07T04:05:42;2.70;99.90
2523;DHT22;1272;53.332;9.860;2022-12-07T04:08:08;2.60;99.90
2523;DHT22;1272;53.332;9.860;2022-12-07T04:10:34;2.60;99.90
2523;DHT22;1272;53.332;9.860;2022-12-07T04:13:00;2.60;99.90
2523;DHT22;1272;53.332;9.860;2022-12-07T04:15:26;2.60;99.90
2523;DHT22;1272;53.332;9.860;2022-12-07T04:17:52;2.50;99.90
2523;DHT22;1272;53.332;9.860;2022-12-07T04:20:19;2.50;99.90
2523;DHT22;1272;53.332;9.860;2022-12-07T04:22:45;2.50;99.90
2523;DHT22;1272;53.332;9.860;2022-12-07T04:25:11;2.50;99.90
2523;DHT22;1272;53.332;9.860;2022-12-07T04:27:36;2.50;99.90
2523;DHT22;1272;53.332;9.860;2022-12-07T04:30:03;2.50;99.90
2523;DHT22;1272;53.332;9.860;2022-12-07T04:32:29;2.60;99.90
2523;DHT22;1272;53.332;9.860;2022-12-07T04:34:55;2.50;99.90
2523;DHT22;1272;53.332;9.860;2022-12-07T04:37:20;2.50;99.90
2523;DHT22;1272;53.332;9.860;2022-12-07T04:39:46;2.50;99.90
2523;DHT22;1272;53.332;9.860;2022-12-07T04:42:12;2.50;99.90
2523;DHT22;1272;53.332;9.860;2022-12-07T04:44:41;2.50;99.90
2523;DHT22;1272;53.332;9.860;2022-12-07T04:47:06;2.50;99.90
2523;DHT22;1272;53.332;9.860;2022-12-07T04:49:32;2.50;99.90
2523;DHT22;1272;53.332;9.860;2022-12-07T04:51:58;2.50;99.90
2523;DHT22;1272;53.332;9.860;2022-12-07T04:54:23;2.50;99.90
2523;DHT22;1272;53.332;9.860;2022-12-07T04:56:49;2.50;99.90
2523;DHT22;1272;53.332;9.860;2022-12-07T04:59:15;2.50;99.90
2523;DHT22;1272;53.332;9.860;2022-12-07T05:01:44;2.50;99.90
2523;DHT22;1272;53.332;9.860;2022-12-07T05:04:12;2.50;99.90
2523;DHT22;1272;53.332;9.860;2022-12-07T05:06:37;2.50;99.90
2523;DHT22;1272;53.332;9.860;2022-12-07T05:09:03;2.50;99.90
2523;DHT22;1272;53.332;9.860;2022-12-07T05:11:29;2.50;99.90
2523;DHT22;1272;53.332;9.860;2022-12-07T05:14:19;2.50;99.90
2523;DHT22;1272;53.332;9.860;2022-12-07T05:16:47;2.50;99.90
2523;DHT22;1272;53.332;9.860;2022-12-07T05:19:13;2.60;99.90
2523;DHT22;1272;53.332;9.860;2022-12-07T05:21:39;2.50;99.90
2523;DHT22;1272;53.332;9.860;2022-12-07T05:24:06;2.50;99.90
2523;DHT22;1272;53.332;9.860;2022-12-07T05:26:32;2.50;99.90
2523;DHT22;1272;53.332;9.860;2022-12-07T05:28:58;2.50;99.90
2523;DHT22;1272;53.332;9.860;2022-12-07T05:31:26;2.50;99.90
2523;DHT22;1272;53.332;9.860;2022-12-07T05:33:52;2.40;99.90
2523;DHT22;1272;53.332;9.860;2022-12-07T05:36:18;2.50;99.90
2523;DHT22;1272;53.332;9.860;2022-12-07T05:38:44;2.50;99.90
2523;DHT22;1272;53.332;9.860;2022-12-07T05:41:14;2.40;99.90
2523;DHT22;1272;53.332;9.860;2022-12-07T05:43:58;2.40;99.90
2523;DHT22;1272;53.332;9.860;2022-12-07T05:46:24;2.30;99.90
2523;DHT22;1272;53.332;9.860;2022-12-07T05:48:50;2.30;99.90
2523;DHT22;1272;53.332;9.860;2022-12-07T05:51:15;2.30;99.90
2523;DHT22;1272;53.332;9.860;2022-12-07T05:53:44;2.20;99.90
2523;DHT22;1272;53.332;9.860;2022-12-07T05:56:10;2.20;99.90
2523;DHT22;1272;53.332;9.860;2022-12-07T05:58:36;2.20;99.90
2523;DHT22;1272;53.332;9.860;2022-12-07T06:01:20;2.20;99.90
2523;DHT22;1272;53.332;9.860;2022-12-07T06:03:46;2.20;99.90
2523;DHT22;1272;53.332;9.860;2022-12-07T06:06:11;2.10;99.90
2523;DHT22;1272;53.332;9.860;2022-12-07T06:08:37;2.10;99.90
2523;DHT22;1272;53.332;9.860;2022-12-07T06:11:03;2.10;99.90
2523;DHT22;1272;53.332;9.860;2022-12-07T06:13:47;2.10;99.90
2523;DHT22;1272;53.332;9.860;2022-12-07T06:16:13;2.10;99.90
2523;DHT22;1272;53.332;9.860;2022-12-07T06:18:38;2.00;99.90
2523;DHT22;1272;53.332;9.860;2022-12-07T06:21:04;2.00;99.90
2523;DHT22;1272;53.332;9.860;2022-12-07T06:23:30;2.00;99.90
2523;DHT22;1272;53.332;9.860;2022-12-07T06:25:56;2.00;99.90
2523;DHT22;1272;53.332;9.860;2022-12-07T06:28:21;2.00;99.90
2523;DHT22;1272;53.332;9.860;2022-12-07T06:30:47;2.00;99.90
2523;DHT22;1272;53.332;9.860;2022-12-07T06:33:13;2.00;99.90
2523;DHT22;1272;53.332;9.860;2022-12-07T06:35:38;2.00;99.90
2523;DHT22;1272;53.332;9.860;2022-12-07T06:38:04;2.10;99.90
2523;DHT22;1272;53.332;9.860;2022-12-07T06:40:30;2.00;99.90
2523;DHT22;1272;53.332;9.860;2022-12-07T06:42:55;2.00;99.90
2523;DHT22;1272;53.332;9.860;2022-12-07T06:45:21;2.00;99.90
2523;DHT22;1272;53.332;9.860;2022-12-07T06:47:47;2.00;99.90
2523;DHT22;1272;53.332;9.860;2022-12-07T06:50:12;2.00;99.90
2523;DHT22;1272;53.332;9.860;2022-12-07T06:52:38;2.00;99.90
2523;DHT22;1272;53.332;9.860;2022-12-07T06:55:05;2.10;99.90
2523;DHT22;1272;53.332;9.860;2022-12-07T06:57:30;2.10;99.90
2523;DHT22;1272;53.332;9.860;2022-12-07T06:59:56;2.10;99.90
2523;DHT22;1272;53.332;9.860;2022-12-07T07:02:22;2.10;99.90
2523;DHT22;1272;53.332;9.860;2022-12-07T07:04:47;2.10;99.90
2523;DHT22;1272;53.332;9.860;2022-12-07T07:07:13;2.10;99.90
2523;DHT22;1272;53.332;9.860;2022-12-07T07:09:39;2.10;99.90
2523;DHT22;1272;53.332;9.860;2022-12-07T07:12:04;2.10;99.90
2523;DHT22;1272;53.332;9.860;2022-12-07T07:14:30;2.10;99.90
2523;DHT22;1272;53.332;9.860;2022-12-07T07:16:56;2.10;99.90
2523;DHT22;1272;53.332;9.860;2022-12-07T07:19:21;2.10;99.90
2523;DHT22;1272;53.332;9.860;2022-12-07T07:21:47;2.10;99.90
2523;DHT22;1272;53.332;9.860;2022-12-07T07:24:13;2.10;99.90
2523;DHT22;1272;53.332;9.860;2022-12-07T07:26:38;2.10;99.90
2523;DHT22;1272;53.332;9.860;2022-12-07T07:29:04;2.10;99.90
2523;DHT22;1272;53.332;9.860;2022-12-07T07:31:30;2.10;99.90
2523;DHT22;1272;53.332;9.860;2022-12-07T07:33:56;2.10;99.90
2523;DHT22;1272;53.332;9.860;2022-12-07T07:36:21;2.10;99.90
2523;DHT22;1272;53.332;9.860;2022-12-07T07:38:47;2.20;99.90
2523;DHT22;1272;53.332;9.860;2022-12-07T07:41:13;2.20;99.90
2523;DHT22;1272;53.332;9.860;2022-12-07T07:43:38;2.20;99.90
2523;DHT22;1272;53.332;9.860;2022-12-07T07:46:04;2.20;99.90
2523;DHT22;1272;53.332;9.860;2022-12-07T07:48:30;2.20;99.90
2523;DHT22;1272;53.332;9.860;2022-12-07T07:50:55;2.20;99.90
2523;DHT22;1272;53.332;9.860;2022-12-07T07:53:21;2.30;99.90
2523;DHT22;1272;53.332;9.860;2022-12-07T07:55:54;2.30;99.90
2523;DHT22;1272;53.332;9.860;2022-12-07T07:58:20;2.30;99.90
2523;DHT22;1272;53.332;9.860;2022-12-07T08:00:46;2.40;99.90
2523;DHT22;1272;53.332;9.860;2022-12-07T08:03:12;2.40;99.90
2523;DHT22;1272;53.332;9.860;2022-12-07T08:05:38;2.30;99.90
2523;DHT22;1272;53.332;9.860;2022-12-07T08:08:04;2.40;99.90
2523;DHT22;1272;53.332;9.860;2022-12-07T08:10:30;2.30;99.90
2523;DHT22;1272;53.332;9.860;2022-12-07T08:12:58;2.30;99.90
2523;DHT22;1272;53.332;9.860;2022-12-07T08:15:38;2.40;99.90
2523;DHT22;1272;53.332;9.860;2022-12-07T08:18:04;2.40;99.90
2523;DHT22;1272;53.332;9.860;2022-12-07T08:20:31;2.40;99.90
2523;DHT22;1272;53.332;9.860;2022-12-07T08:22:58;2.40;99.90
2523;DHT22;1272;53.332;9.860;2022-12-07T08:25:24;2.40;99.90
2523;DHT22;1272;53.332;9.860;2022-12-07T08:27:51;2.40;99.90
2523;DHT22;1272;53.332;9.860;2022-12-07T08:30:20;2.40;99.90
2523;DHT22;1272;53.332;9.860;2022-12-07T08:32:46;2.50;99.90
2523;DHT22;1272;53.332;9.860;2022-12-07T08:35:13;2.50;99.90
2523;DHT22;1272;53.332;9.860;2022-12-07T08:37:39;2.60;99.90
2523;DHT22;1272;53.332;9.860;2022-12-07T08:40:08;2.60;99.90
2523;DHT22;1272;53.332;9.860;2022-12-07T08:42:34;2.60;99.90
2523;DHT22;1272;53.332;9.860;2022-12-07T08:45:07;2.60;99.90
2523;DHT22;1272;53.332;9.860;2022-12-07T08:47:36;2.60;99.90
2523;DHT22;1272;53.332;9.860;2022-12-07T08:50:04;2.60;99.90
2523;DHT22;1272;53.332;9.860;2022-12-07T08:52:31;2.60;99.90
2523;DHT22;1272;53.332;9.860;2022-12-07T08:54:59;2.70;99.90
2523;DHT22;1272;53.332;9.860;2022-12-07T08:57:27;2.70;99.90
2523;DHT22;1272;53.332;9.860;2022-12-07T08:59:53;2.70;99.90
2523;DHT22;1272;53.332;9.860;2022-12-07T09:02:19;2.60;99.90
2523;DHT22;1272;53.332;9.860;2022-12-07T09:04:44;2.70;99.90
2523;DHT22;1272;53.332;9.860;2022-12-07T09:07:10;2.70;99.90
2523;DHT22;1272;53.332;9.860;2022-12-07T09:09:36;2.80;99.90
2523;DHT22;1272;53.332;9.860;2022-12-07T09:12:04;2.80;99.90
2523;DHT22;1272;53.332;9.860;2022-12-07T09:14:33;2.80;99.90
2523;DHT22;1272;53.332;9.860;2022-12-07T09:17:10;2.80;99.90
2523;DHT22;1272;53.332;9.860;2022-12-07T09:19:36;2.80;99.90
2523;DHT22;1272;53.332;9.860;2022-12-07T09:22:02;2.80;99.90
2523;DHT22;1272;53.332;9.860;2022-12-07T09:24:28;2.90;99.90
2523;DHT22;1272;53.332;9.860;2022-12-07T09:26:53;2.90;99.90
2523;DHT22;1272;53.332;9.860;2022-12-07T09:29:19;2.90;99.90
2523;DHT22;1272;53.332;9.860;2022-12-07T09:31:48;2.90;99.90
2523;DHT22;1272;53.332;9.860;2022-12-07T09:34:13;3.00;99.90
2523;DHT22;1272;53.332;9.860;2022-12-07T09:36:39;3.00;99.90
2523;DHT22;1272;53.332;9.860;2022-12-07T09:39:05;3.00;99.90
2523;DHT22;1272;53.332;9.860;2022-12-07T09:41:32;3.00;99.90
2523;DHT22;1272;53.332;9.860;2022-12-07T09:44:06;2.90;99.90
2523;DHT22;1272;53.332;9.860;2022-12-07T09:46:39;2.90;99.90
2523;DHT22;1272;53.332;9.860;2022-12-07T09:49:14;2.80;99.90
2523;DHT22;1272;53.332;9.860;2022-12-07T09:51:42;2.80;99.90
2523;DHT22;1272;53.332;9.860;2022-12-07T09:54:11;2.70;99.90
2523;DHT22;1272;53.332;9.860;2022-12-07T09:56:37;2.70;99.90
2523;DHT22;1272;53.332;9.860;2022-12-07T09:59:05;2.80;99.90
2523;DHT22;1272;53.332;9.860;2022-12-07T10:01:33;2.90;99.90
2523;DHT22;1272;53.332;9.860;2022-12-07T10:04:18;2.90;99.90
2523;DHT22;1272;53.332;9.860;2022-12-07T10:06:44;2.90;99.90
2523;DHT22;1272;53.332;9.860;2022-12-07T10:09:12;2.80;99.90
2523;DHT22;1272;53.332;9.860;2022-12-07T10:12:15;2.90;99.90
2523;DHT22;1272;53.332;9.860;2022-12-07T10:14:59;2.90;99.90
2523;DHT22;1272;53.332;9.860;2022-12-07T10:17:32;2.90;99.90
2523;DHT22;1272;53.332;9.860;2022-12-07T10:20:20;3.00;99.90
2523;DHT22;1272;53.332;9.860;2022-12-07T10:22:58;3.00;99.90
2523;DHT22;1272;53.332;9.860;2022-12-07T10:25:36;3.00;99.90
2523;DHT22;1272;53.332;9.860;2022-12-07T10:30:59;3.10;99.90
2523;DHT22;1272;53.332;9.860;2022-12-07T10:33:35;3.20;99.90
2523;DHT22;1272;53.332;9.860;2022-12-07T10:36:37;3.30;99.90
2523;DHT22;1272;53.332;9.860;2022-12-07T10:39:14;3.40;99.90
2523;DHT22;1272;53.332;9.860;2022-12-07T10:42:02;3.40;99.90
2523;DHT22;1272;53.332;9.860;2022-12-07T10:44:33;3.40;99.90
2523;DHT22;1272;53.332;9.860;2022-12-07T11:00:46;3.40;99.90
2523;DHT22;1272;53.332;9.860;2022-12-07T11:03:34;3.50;99.90
2523;DHT22;1272;53.332;9.860;2022-12-07T11:11:42;3.60;99.90
2523;DHT22;1272;53.332;9.860;2022-12-07T11:17:18;3.70;99.90
2523;DHT22;1272;53.332;9.860;2022-12-07T11:22:25;3.70;99.90
2523;DHT22;1272;53.332;9.860;2022-12-07T11:28:06;3.80;99.90
2523;DHT22;1272;53.332;9.860;2022-12-07T11:30:57;3.80;99.90
2523;DHT22;1272;53.332;9.860;2022-12-07T11:33:52;3.80;99.90
2523;DHT22;1272;53.332;9.860;2022-12-07T11:41:45;3.90;99.90
2523;DHT22;1272;53.332;9.860;2022-12-07T11:47:01;4.00;99.90
2523;DHT22;1272;53.332;9.860;2022-12-07T11:52:40;4.10;99.90
2523;DHT22;1272;53.332;9.860;2022-12-07T11:57:52;4.10;99.90
2523;DHT22;1272;53.332;9.860;2022-12-07T12:00:20;4.20;99.90
2523;DHT22;1272;53.332;9.860;2022-12-07T12:03:11;4.10;99.90
2523;DHT22;1272;53.332;9.860;2022-12-07T12:05:39;4.20;99.90
2523;DHT22;1272;53.332;9.860;2022-12-07T12:08:31;4.20;99.90
2523;DHT22;1272;53.332;9.860;2022-12-07T12:11:13;4.30;99.90
2523;DHT22;1272;53.332;9.860;2022-12-07T12:14:23;4.40;99.90
2523;DHT22;1272;53.332;9.860;2022-12-07T12:26:04;4.30;99.90
2523;DHT22;1272;53.332;9.860;2022-12-07T12:33:51;4.30;99.90
2523;DHT22;1272;53.332;9.860;2022-12-07T12:36:20;4.30;99.90
2523;DHT22;1272;53.332;9.860;2022-12-07T12:46:52;4.40;99.90
2523;DHT22;1272;53.332;9.860;2022-12-07T12:54:19;4.40;99.90
2523;DHT22;1272;53.332;9.860;2022-12-07T12:57:09;4.40;99.90
2523;DHT22;1272;53.332;9.860;2022-12-07T12:59:39;4.40;99.90
2523;DHT22;1272;53.332;9.860;2022-12-07T13:05:01;4.30;99.90
2523;DHT22;1272;53.332;9.860;2022-12-07T13:15:39;4.20;99.90
2523;DHT22;1272;53.332;9.860;2022-12-07T13:23:19;4.20;99.90
2523;DHT22;1272;53.332;9.860;2022-12-07T13:25:55;4.20;99.90
2523;DHT22;1272;53.332;9.860;2022-12-07T13:28:22;4.20;99.90
2523;DHT22;1272;53.332;9.860;2022-12-07T13:31:00;4.20;99.90
2523;DHT22;1272;53.332;9.860;2022-12-07T13:33:29;4.20;99.90
2523;DHT22;1272;53.332;9.860;2022-12-07T13:35:55;4.20;99.90
2523;DHT22;1272;53.332;9.860;2022-12-07T13:38:28;4.30;99.90
2523;DHT22;1272;53.332;9.860;2022-12-07T13:43:27;4.20;99.90
2523;DHT22;1272;53.332;9.860;2022-12-07T13:45:58;4.20;99.90
2523;DHT22;1272;53.332;9.860;2022-12-07T13:48:35;4.20;99.90
2523;DHT22;1272;53.332;9.860;2022-12-07T13:51:03;4.10;99.90
2523;DHT22;1272;53.332;9.860;2022-12-07T13:53:30;4.10;99.90
2523;DHT22;1272;53.332;9.860;2022-12-07T13:56:00;4.10;99.90
2523;DHT22;1272;53.332;9.860;2022-12-07T13:58:27;4.20;99.90
2523;DHT22;1272;53.332;9.860;2022-12-07T14:00:55;4.20;99.90
2523;DHT22;1272;53.332;9.860;2022-12-07T14:03:28;4.30;99.90
2523;DHT22;1272;53.332;9.860;2022-12-07T14:06:15;4.20;99.90
2523;DHT22;1272;53.332;9.860;2022-12-07T14:08:42;4.30;99.90
2523;DHT22;1272;53.332;9.860;2022-12-07T14:11:15;4.20;99.90
2523;DHT22;1272;53.332;9.860;2022-12-07T14:16:33;4.10;99.90
2523;DHT22;1272;53.332;9.860;2022-12-07T14:19:02;4.10;99.90
2523;DHT22;1272;53.332;9.860;2022-12-07T14:21:33;4.00;99.90
2523;DHT22;1272;53.332;9.860;2022-12-07T14:24:22;4.00;99.90
2523;DHT22;1272;53.332;9.860;2022-12-07T14:26:49;4.00;99.90
2523;DHT22;1272;53.332;9.860;2022-12-07T14:31:44;4.10;99.90
2523;DHT22;1272;53.332;9.860;2022-12-07T14:34:13;4.00;99.90
2523;DHT22;1272;53.332;9.860;2022-12-07T14:36:39;4.00;99.90
2523;DHT22;1272;53.332;9.860;2022-12-07T14:39:05;3.90;99.90
2523;DHT22;1272;53.332;9.860;2022-12-07T14:41:31;3.90;99.90
2523;DHT22;1272;53.332;9.860;2022-12-07T14:44:15;3.90;99.90
2523;DHT22;1272;53.332;9.860;2022-12-07T14:46:40;3.90;99.90
2523;DHT22;1272;53.332;9.860;2022-12-07T14:49:06;3.90;99.90
2523;DHT22;1272;53.332;9.860;2022-12-07T14:51:32;3.90;99.90
2523;DHT22;1272;53.332;9.860;2022-12-07T14:53:58;3.90;99.90
2523;DHT22;1272;53.332;9.860;2022-12-07T14:56:25;3.90;99.90
2523;DHT22;1272;53.332;9.860;2022-12-07T14:58:51;3.90;99.90
2523;DHT22;1272;53.332;9.860;2022-12-07T15:01:16;3.90;99.90
2523;DHT22;1272;53.332;9.860;2022-12-07T15:03:42;3.90;99.90
2523;DHT22;1272;53.332;9.860;2022-12-07T15:06:14;3.80;99.90
2523;DHT22;1272;53.332;9.860;2022-12-07T15:08:40;3.80;99.90
2523;DHT22;1272;53.332;9.860;2022-12-07T15:11:06;3.80;99.90
2523;DHT22;1272;53.332;9.860;2022-12-07T15:13:31;3.70;99.90
2523;DHT22;1272;53.332;9.860;2022-12-07T15:16:20;3.70;99.90
2523;DHT22;1272;53.332;9.860;2022-12-07T15:18:46;3.70;99.90
2523;DHT22;1272;53.332;9.860;2022-12-07T15:21:15;3.70;99.90
2523;DHT22;1272;53.332;9.860;2022-12-07T15:23:42;3.60;99.90
2523;DHT22;1272;53.332;9.860;2022-12-07T15:26:09;3.60;99.90
2523;DHT22;1272;53.332;9.860;2022-12-07T15:28:35;3.60;99.90
2523;DHT22;1272;53.332;9.860;2022-12-07T15:31:00;3.50;99.90
2523;DHT22;1272;53.332;9.860;2022-12-07T15:33:27;3.60;99.90
2523;DHT22;1272;53.332;9.860;2022-12-07T15:35:53;3.60;99.90
2523;DHT22;1272;53.332;9.860;2022-12-07T15:38:19;3.60;99.90
2523;DHT22;1272;53.332;9.860;2022-12-07T15:40:47;3.60;99.90
2523;DHT22;1272;53.332;9.860;2022-12-07T15:43:12;3.50;99.90
2523;DHT22;1272;53.332;9.860;2022-12-07T15:46:00;3.50;99.90
2523;DHT22;1272;53.332;9.860;2022-12-07T15:48:25;3.50;99.90
2523;DHT22;1272;53.332;9.860;2022-12-07T15:50:51;3.40;99.90
2523;DHT22;1272;53.332;9.860;2022-12-07T15:53:17;3.40;99.90
2523;DHT22;1272;53.332;9.860;2022-12-07T15:55:43;3.40;99.90
2523;DHT22;1272;53.332;9.860;2022-12-07T15:58:08;3.40;99.90
2523;DHT22;1272;53.332;9.860;2022-12-07T16:00:34;3.40;99.90
2523;DHT22;1272;53.332;9.860;2022-12-07T16:03:00;3.30;99.90
2523;DHT22;1272;53.332;9.860;2022-12-07T16:05:26;3.30;99.90
2523;DHT22;1272;53.332;9.860;2022-12-07T16:07:51;3.20;99.90
2523;DHT22;1272;53.332;9.860;2022-12-07T16:10:19;3.30;99.90
2523;DHT22;1272;53.332;9.860;2022-12-07T16:12:45;3.20;99.90
2523;DHT22;1272;53.332;9.860;2022-12-07T16:15:11;3.20;99.90
2523;DHT22;1272;53.332;9.860;2022-12-07T16:17:36;3.20;99.90
2523;DHT22;1272;53.332;9.860;2022-12-07T16:20:03;3.10;99.90
2523;DHT22;1272;53.332;9.860;2022-12-07T16:22:29;3.10;99.90
2523;DHT22;1272;53.332;9.860;2022-12-07T16:24:55;3.10;99.90
2523;DHT22;1272;53.332;9.860;2022-12-07T16:27:21;3.00;99.90
2523;DHT22;1272;53.332;9.860;2022-12-07T16:29:46;3.00;99.90
2523;DHT22;1272;53.332;9.860;2022-12-07T16:32:12;3.00;99.90
2523;DHT22;1272;53.332;9.860;2022-12-07T16:34:39;3.00;99.90
2523;DHT22;1272;53.332;9.860;2022-12-07T16:37:05;3.00;99.90
2523;DHT22;1272;53.332;9.860;2022-12-07T16:39:31;3.00;99.90
2523;DHT22;1272;53.332;9.860;2022-12-07T16:41:57;3.00;99.90
2523;DHT22;1272;53.332;9.860;2022-12-07T16:44:22;2.90;99.90
2523;DHT22;1272;53.332;9.860;2022-12-07T16:46:48;2.90;99.90
2523;DHT22;1272;53.332;9.860;2022-12-07T16:49:14;2.90;99.90
2523;DHT22;1272;53.332;9.860;2022-12-07T16:51:40;2.90;99.90
2523;DHT22;1272;53.332;9.860;2022-12-07T16:54:10;2.90;99.90
2523;DHT22;1272;53.332;9.860;2022-12-07T16:56:36;2.90;99.90
2523;DHT22;1272;53.332;9.860;2022-12-07T16:59:01;2.90;99.90
2523;DHT22;1272;53.332;9.860;2022-12-07T17:01:27;2.80;99.90
2523;DHT22;1272;53.332;9.860;2022-12-07T17:03:53;2.80;99.90
2523;DHT22;1272;53.332;9.860;2022-12-07T17:06:24;2.80;99.90
2523;DHT22;1272;53.332;9.860;2022-12-07T17:08:57;2.80;99.90
2523;DHT22;1272;53.332;9.860;2022-12-07T17:11:26;2.70;99.90
2523;DHT22;1272;53.332;9.860;2022-12-07T17:13:52;2.70;99.90
2523;DHT22;1272;53.332;9.860;2022-12-07T17:16:37;2.70;99.90
2523;DHT22;1272;53.332;9.860;2022-12-07T17:19:10;2.70;99.90
2523;DHT22;1272;53.332;9.860;2022-12-07T17:21:36;2.70;99.90
2523;DHT22;1272;53.332;9.860;2022-12-07T17:24:05;2.70;99.90
2523;DHT22;1272;53.332;9.860;2022-12-07T17:26:31;2.60;99.90
2523;DHT22;1272;53.332;9.860;2022-12-07T17:28:57;2.60;99.90
2523;DHT22;1272;53.332;9.860;2022-12-07T17:31:24;2.50;99.90
2523;DHT22;1272;53.332;9.860;2022-12-07T17:33:50;2.50;99.90
2523;DHT22;1272;53.332;9.860;2022-12-07T17:36:24;2.50;99.90
2523;DHT22;1272;53.332;9.860;2022-12-07T17:38:54;2.40;99.90
2523;DHT22;1272;53.332;9.860;2022-12-07T17:41:22;2.40;99.90
2523;DHT22;1272;53.332;9.860;2022-12-07T17:44:12;2.30;99.90
2523;DHT22;1272;53.332;9.860;2022-12-07T17:46:41;2.30;99.90
2523;DHT22;1272;53.332;9.860;2022-12-07T17:49:07;2.30;99.90
2523;DHT22;1272;53.332;9.860;2022-12-07T17:51:35;2.30;99.90
2523;DHT22;1272;53.332;9.860;2022-12-07T17:54:20;2.30;99.90
2523;DHT22;1272;53.332;9.860;2022-12-07T17:56:46;2.30;99.90
2523;DHT22;1272;53.332;9.860;2022-12-07T17:59:12;2.30;99.90
2523;DHT22;1272;53.332;9.860;2022-12-07T18:01:39;2.30;99.90
2523;DHT22;1272;53.332;9.860;2022-12-07T18:04:05;2.20;99.90
2523;DHT22;1272;53.332;9.860;2022-12-07T18:06:31;2.20;99.90
2523;DHT22;1272;53.332;9.860;2022-12-07T18:08:58;2.20;99.90
2523;DHT22;1272;53.332;9.860;2022-12-07T18:11:24;2.20;99.90
2523;DHT22;1272;53.332;9.860;2022-12-07T18:13:50;2.20;99.90
2523;DHT22;1272;53.332;9.860;2022-12-07T18:16:17;2.10;99.90
2523;DHT22;1272;53.332;9.860;2022-12-07T18:18:45;2.10;99.90
2523;DHT22;1272;53.332;9.860;2022-12-07T18:21:17;2.10;99.90
2523;DHT22;1272;53.332;9.860;2022-12-07T18:23:45;2.00;99.90
2523;DHT22;1272;53.332;9.860;2022-12-07T18:26:11;2.00;99.90
2523;DHT22;1272;53.332;9.860;2022-12-07T18:28:38;2.00;99.90
2523;DHT22;1272;53.332;9.860;2022-12-07T18:31:05;2.00;99.90
2523;DHT22;1272;53.332;9.860;2022-12-07T18:33:31;2.00;99.90
2523;DHT22;1272;53.332;9.860;2022-12-07T18:35:58;1.90;99.90
2523;DHT22;1272;53.332;9.860;2022-12-07T18:38:24;2.00;99.90
2523;DHT22;1272;53.332;9.860;2022-12-07T18:40:50;2.00;99.90
2523;DHT22;1272;53.332;9.860;2022-12-07T18:43:16;2.00;99.90